createdAt,value
2022-11-02T00:00:25.569Z,8.4
2022-11-02T00:01:25.381Z,8.72
2022-11-02T00:02:25.534Z,8.8
2022-11-02T00:03:25.620Z,8.639999
2022-11-02T00:04:26.280Z,8.48
2022-11-02T00:05:25.889Z,8.48
2022-11-02T00:06:26.038Z,8.48
2022-11-02T00:07:26.146Z,8.48
2022-11-02T00:08:26.633Z,8.639999
2022-11-02T00:09:26.333Z,8.4
2022-11-02T00:10:26.440Z,8.48
2022-11-02T00:11:26.589Z,8.24
2022-11-02T00:12:26.740Z,8.24
2022-11-02T00:13:26.908Z,8.32
2022-11-02T00:14:27.056Z,8
2022-11-02T00:15:27.210Z,8.639999
2022-11-02T00:16:27.351Z,8.24
2022-11-02T00:17:27.517Z,7.92
2022-11-02T00:18:27.680Z,8.24
2022-11-02T00:19:27.820Z,7.92
2022-11-02T00:20:27.964Z,7.84
2022-11-02T00:21:28.150Z,8.4
2022-11-02T00:22:28.223Z,8.08
2022-11-02T00:23:28.375Z,7.92
2022-11-02T00:24:28.528Z,7.84
2022-11-02T00:25:28.712Z,8
2022-11-02T00:26:28.837Z,8.08
2022-11-02T00:27:28.991Z,7.84
2022-11-02T00:28:29.125Z,7.92
2022-11-02T00:29:33.567Z,7.52
2022-11-02T00:30:29.424Z,7.28
2022-11-02T00:31:29.608Z,7.28
2022-11-02T00:32:29.978Z,7.68
2022-11-02T00:33:30.006Z,7.52
2022-11-02T00:34:30.138Z,7.28
2022-11-02T00:35:30.279Z,7.12
2022-11-02T00:36:30.393Z,7.44
2022-11-02T00:37:30.586Z,7.2
2022-11-02T00:38:30.689Z,7.44
2022-11-02T00:39:30.845Z,7.28
2022-11-02T00:40:31.004Z,7.6
2022-11-02T00:41:31.152Z,7.6
2022-11-02T00:42:31.299Z,7.44
2022-11-02T00:43:31.462Z,8.08
2022-11-02T00:44:31.610Z,7.92
2022-11-02T00:45:31.744Z,7.84
2022-11-02T00:46:31.897Z,7.84
2022-11-02T00:47:32.052Z,7.6
2022-11-02T00:48:32.161Z,7.52
2022-11-02T00:49:32.309Z,7.68
2022-11-02T00:50:32.410Z,7.92
2022-11-02T00:51:32.573Z,7.84
2022-11-02T00:52:32.717Z,7.52
2022-11-02T00:53:32.871Z,7.44
2022-11-02T00:54:33.031Z,7.2
2022-11-02T00:55:33.178Z,7.52
2022-11-02T00:56:33.332Z,7.68
2022-11-02T00:57:33.480Z,7.52
2022-11-02T00:58:33.635Z,8.08
2022-11-02T00:59:33.791Z,7.68
2022-11-02T01:00:33.929Z,7.28
2022-11-02T01:01:34.217Z,7.52
2022-11-02T01:02:34.344Z,7.04
2022-11-02T01:03:34.306Z,6.72
2022-11-02T01:04:34.446Z,6.88
2022-11-02T01:05:34.603Z,7.28
2022-11-02T01:06:34.751Z,6.88
2022-11-02T01:07:34.894Z,6.8
2022-11-02T01:08:35.055Z,6.8
2022-11-02T01:09:35.215Z,6.48
2022-11-02T01:10:35.350Z,6.88
2022-11-02T01:11:35.460Z,7.2
2022-11-02T01:12:35.642Z,7.28
2022-11-02T01:13:35.756Z,7.2
2022-11-02T01:14:35.853Z,7.2
2022-11-02T01:15:36.000Z,7.2
2022-11-02T01:16:36.152Z,6.8
2022-11-02T01:17:36.255Z,6.64
2022-11-02T01:18:36.393Z,6.72
2022-11-02T01:19:36.521Z,6.4
2022-11-02T01:20:36.674Z,6.48
2022-11-02T01:21:36.825Z,6.8
2022-11-02T01:22:36.974Z,6.8
2022-11-02T01:23:37.125Z,7.12
2022-11-02T01:24:37.273Z,7.2
2022-11-02T01:25:37.419Z,7.44
2022-11-02T01:26:37.642Z,7.44
2022-11-02T01:27:37.737Z,7.28
2022-11-02T01:28:37.829Z,7.28
2022-11-02T01:29:37.942Z,7.2
2022-11-02T01:30:38.080Z,7.44
2022-11-02T01:31:38.179Z,7.28
2022-11-02T01:32:38.338Z,7.28
2022-11-02T01:33:38.495Z,7.28
2022-11-02T01:34:38.649Z,7.44
2022-11-02T01:35:38.802Z,7.44
2022-11-02T01:36:38.955Z,7.44
2022-11-02T01:37:39.140Z,7.6
2022-11-02T01:38:39.263Z,7.84
2022-11-02T01:39:39.407Z,7.68
2022-11-02T01:40:39.513Z,7.84
2022-11-02T01:41:39.657Z,7.68
2022-11-02T01:42:39.814Z,7.6
2022-11-02T01:43:39.960Z,7.84
2022-11-02T01:44:40.114Z,7.84
2022-11-02T01:45:40.252Z,7.68
2022-11-02T01:46:40.402Z,7.6
2022-11-02T01:47:40.557Z,7.52
2022-11-02T01:48:40.723Z,7.44
2022-11-02T01:49:40.870Z,7.28
2022-11-02T01:50:41.009Z,7.28
2022-11-02T01:51:41.197Z,7.52
2022-11-02T01:52:41.374Z,7.52
2022-11-02T01:53:41.485Z,7.28
2022-11-02T01:54:41.600Z,7.28
2022-11-02T01:55:41.730Z,7.28
2022-11-02T01:56:41.894Z,7.2
2022-11-02T01:57:42.028Z,7.2
2022-11-02T01:58:42.186Z,7.2
2022-11-02T01:59:42.346Z,7.2
2022-11-02T02:00:42.492Z,7.28
2022-11-02T02:01:42.701Z,7.2
2022-11-02T02:02:42.751Z,7.2
2022-11-02T02:03:42.841Z,7.2
2022-11-02T02:04:42.995Z,7.28
2022-11-02T02:05:43.113Z,7.2
2022-11-02T02:06:43.248Z,7.12
2022-11-02T02:07:43.400Z,7.2
2022-11-02T02:08:43.554Z,7.28
2022-11-02T02:09:45.976Z,7.04
2022-11-02T02:10:43.902Z,7.12
2022-11-02T02:11:44.023Z,7.2
2022-11-02T02:12:44.155Z,7.2
2022-11-02T02:13:44.321Z,7.12
2022-11-02T02:14:44.464Z,7.2
2022-11-02T02:15:44.609Z,7.28
2022-11-02T02:16:44.817Z,7.2
2022-11-02T02:17:44.869Z,7.28
2022-11-02T02:18:45.027Z,7.2
2022-11-02T02:19:45.129Z,7.2
2022-11-02T02:20:45.270Z,7.2
2022-11-02T02:21:45.429Z,7.28
2022-11-02T02:22:45.582Z,7.28
2022-11-02T02:23:45.729Z,7.44
2022-11-02T02:24:45.888Z,7.52
2022-11-02T02:25:46.030Z,7.44
2022-11-02T02:26:46.178Z,7.44
2022-11-02T02:27:46.344Z,7.2
2022-11-02T02:28:46.445Z,7.28
2022-11-02T02:29:46.546Z,7.44
2022-11-02T02:30:46.632Z,7.44
2022-11-02T02:31:46.811Z,7.44
2022-11-02T02:32:46.949Z,7.52
2022-11-02T02:33:47.105Z,7.52
2022-11-02T02:34:47.253Z,7.52
2022-11-02T02:35:47.409Z,7.44
2022-11-02T02:36:47.509Z,7.44
2022-11-02T02:37:47.665Z,7.44
2022-11-02T02:38:47.805Z,7.44
2022-11-02T02:39:47.910Z,7.28
2022-11-02T02:40:48.053Z,7.52
2022-11-02T02:41:48.207Z,7.52
2022-11-02T02:42:48.364Z,7.44
2022-11-02T02:43:48.518Z,7.2
2022-11-02T02:44:48.667Z,7.44
2022-11-02T02:45:48.811Z,7.28
2022-11-02T02:46:51.008Z,7.28
2022-11-02T02:47:49.147Z,7.44
2022-11-02T02:48:49.276Z,7.52
2022-11-02T02:49:49.426Z,7.28
2022-11-02T02:50:49.580Z,7.52
2022-11-02T02:51:49.720Z,7.52
2022-11-02T02:52:49.891Z,7.28
2022-11-02T02:53:50.041Z,7.84
2022-11-02T02:54:50.188Z,7.68
2022-11-02T02:55:50.338Z,7.44
2022-11-02T02:56:50.443Z,7.6
2022-11-02T02:57:50.590Z,7.28
2022-11-02T02:58:50.740Z,7.68
2022-11-02T02:59:50.841Z,7.84
2022-11-02T03:00:50.985Z,7.84
2022-11-02T03:01:51.266Z,7.84
2022-11-02T03:02:51.302Z,7.6
2022-11-02T03:03:51.409Z,8
2022-11-02T03:04:51.520Z,8.08
2022-11-02T03:05:51.640Z,7.84
2022-11-02T03:06:51.796Z,7.6
2022-11-02T03:07:51.959Z,7.84
2022-11-02T03:08:52.065Z,8.08
2022-11-02T03:09:52.213Z,8
2022-11-02T03:10:52.363Z,8
2022-11-02T03:11:52.507Z,7.92
2022-11-02T03:12:52.667Z,7.92
2022-11-02T03:13:52.816Z,7.52
2022-11-02T03:14:52.966Z,7.6
2022-11-02T03:15:53.105Z,7.92
2022-11-02T03:16:53.336Z,8.24
2022-11-02T03:17:53.421Z,8.24
2022-11-02T03:18:53.588Z,8.08
2022-11-02T03:19:53.720Z,8.08
2022-11-02T03:20:53.824Z,8.4
2022-11-02T03:21:53.980Z,8.08
2022-11-02T03:22:54.139Z,8.24
2022-11-02T03:23:54.288Z,8.08
2022-11-02T03:24:54.440Z,7.52
2022-11-02T03:25:54.588Z,7.52
2022-11-02T03:26:54.748Z,7.68
2022-11-02T03:27:54.900Z,7.92
2022-11-02T03:28:55.030Z,7.6
2022-11-02T03:29:55.194Z,7.68
2022-11-02T03:30:55.341Z,7.68
2022-11-02T03:31:55.485Z,7.84
2022-11-02T03:32:55.639Z,7.68
2022-11-02T03:33:55.791Z,7.92
2022-11-02T03:34:55.948Z,8.08
2022-11-02T03:35:56.094Z,7.6
2022-11-02T03:36:56.217Z,7.68
2022-11-02T03:37:56.364Z,7.2
2022-11-02T03:38:56.500Z,7.04
2022-11-02T03:39:56.653Z,7.12
2022-11-02T03:40:56.801Z,7.2
2022-11-02T03:41:56.954Z,7.44
2022-11-02T03:42:57.110Z,7.84
2022-11-02T03:43:57.260Z,7.84
2022-11-02T03:44:57.423Z,7.68
2022-11-02T03:45:57.511Z,8
2022-11-02T03:46:57.663Z,7.84
2022-11-02T03:47:57.771Z,7.84
2022-11-02T03:48:57.937Z,7.68
2022-11-02T03:49:58.071Z,7.68
2022-11-02T03:50:58.229Z,7.68
2022-11-02T03:51:58.327Z,7.6
2022-11-02T03:52:58.481Z,7.52
2022-11-02T03:53:58.628Z,7.84
2022-11-02T03:54:58.745Z,7.44
2022-11-02T03:55:58.879Z,7.28
2022-11-02T03:56:59.059Z,7.84
2022-11-02T03:57:59.133Z,7.6
2022-11-02T03:58:59.282Z,7.6
2022-11-02T03:59:59.459Z,7.52
2022-11-02T04:00:59.588Z,7.28
2022-11-02T04:01:59.859Z,6.88
2022-11-02T04:02:59.890Z,7.28
2022-11-02T04:04:00.053Z,7.28
2022-11-02T04:05:00.190Z,7.2
2022-11-02T04:06:00.363Z,7.28
2022-11-02T04:07:00.499Z,7.84
2022-11-02T04:08:00.617Z,7.68
2022-11-02T04:09:00.786Z,7.52
2022-11-02T04:10:00.867Z,7.84
2022-11-02T04:11:01.021Z,7.84
2022-11-02T04:12:01.173Z,8.08
2022-11-02T04:13:01.273Z,7.68
2022-11-02T04:14:01.419Z,8.32
2022-11-02T04:15:01.570Z,7.6
2022-11-02T04:16:01.709Z,7.68
2022-11-02T04:17:01.881Z,7.28
2022-11-02T04:18:02.157Z,7.04
2022-11-02T04:19:02.135Z,7.52
2022-11-02T04:20:02.286Z,7.68
2022-11-02T04:21:02.431Z,7.52
2022-11-02T04:22:02.643Z,8.24
2022-11-02T04:23:02.683Z,7.84
2022-11-02T04:24:02.830Z,7.84
2022-11-02T04:25:02.987Z,7.68
2022-11-02T04:26:03.151Z,7.92
2022-11-02T04:27:03.280Z,7.84
2022-11-02T04:28:04.298Z,7.84
2022-11-02T04:29:03.582Z,8.48
2022-11-02T04:30:04.095Z,8
2022-11-02T04:31:03.888Z,8.48
2022-11-02T04:32:04.022Z,8.32
2022-11-02T04:33:04.156Z,8.4
2022-11-02T04:34:04.329Z,8.4
2022-11-02T04:35:04.467Z,7.92
2022-11-02T04:36:04.609Z,7.68
2022-11-02T04:37:04.706Z,8.24
2022-11-02T04:38:05.172Z,8.4
2022-11-02T04:39:04.998Z,8.639999
2022-11-02T04:40:05.114Z,8.32
2022-11-02T04:41:05.216Z,8
2022-11-02T04:42:05.371Z,8.08
2022-11-02T04:43:05.516Z,7.84
2022-11-02T04:44:05.667Z,7.92
2022-11-02T04:45:05.822Z,8.08
2022-11-02T04:46:05.965Z,8.24
2022-11-02T04:47:06.112Z,8.08
2022-11-02T04:48:06.838Z,7.92
2022-11-02T04:49:06.424Z,7.68
2022-11-02T04:50:06.516Z,7.92
2022-11-02T04:51:06.720Z,7.92
2022-11-02T04:52:06.845Z,8
2022-11-02T04:53:06.991Z,8.639999
2022-11-02T04:54:07.152Z,8.24
2022-11-02T04:55:07.312Z,8.32
2022-11-02T04:56:07.440Z,8.4
2022-11-02T04:57:07.546Z,8.24
2022-11-02T04:58:07.952Z,8.24
2022-11-02T04:59:07.847Z,8.48
2022-11-02T05:00:07.960Z,8.24
2022-11-02T05:01:08.159Z,8.08
2022-11-02T05:02:08.322Z,8.4
2022-11-02T05:03:09.797Z,8.24
2022-11-02T05:04:08.411Z,8.32
2022-11-02T05:05:08.553Z,8.48
2022-11-02T05:06:08.711Z,8.72
2022-11-02T05:07:08.862Z,8.4
2022-11-02T05:08:09.014Z,7.68
2022-11-02T05:09:09.170Z,8
2022-11-02T05:10:09.332Z,8.32
2022-11-02T05:11:09.460Z,8.08
2022-11-02T05:12:09.617Z,8.08
2022-11-02T05:13:09.779Z,7.44
2022-11-02T05:14:09.935Z,7.84
2022-11-02T05:15:10.646Z,7.92
2022-11-02T05:16:10.263Z,7.68
2022-11-02T05:17:11.071Z,8.24
2022-11-02T05:18:13.655Z,7.92
2022-11-02T05:19:10.938Z,8.08
2022-11-02T05:20:10.867Z,8.32
2022-11-02T05:21:11.019Z,8
2022-11-02T05:22:11.120Z,7.92
2022-11-02T05:23:11.219Z,8.24
2022-11-02T05:24:11.328Z,8.08
2022-11-02T05:25:11.428Z,7.92
2022-11-02T05:26:11.582Z,7.84
2022-11-02T05:27:11.683Z,7.92
2022-11-02T05:28:11.803Z,8.24
2022-11-02T05:29:11.886Z,8.48
2022-11-02T05:30:11.984Z,8.32
2022-11-02T05:31:12.091Z,8
2022-11-02T05:32:12.188Z,7.84
2022-11-02T05:33:12.306Z,8.32
2022-11-02T05:34:12.443Z,8.32
2022-11-02T05:35:13.086Z,8.72
2022-11-02T05:36:12.706Z,8.4
2022-11-02T05:37:12.860Z,8.48
2022-11-02T05:38:12.938Z,8.24
2022-11-02T05:39:13.065Z,8.24
2022-11-02T05:40:13.216Z,8.24
2022-11-02T05:41:13.382Z,8.639999
2022-11-02T05:42:13.517Z,8.4
2022-11-02T05:43:13.669Z,8.48
2022-11-02T05:44:13.824Z,8.639999
2022-11-02T05:45:13.971Z,8.72
2022-11-02T05:46:14.116Z,8.8
2022-11-02T05:47:14.293Z,8.48
2022-11-02T05:48:14.430Z,8.4
2022-11-02T05:49:14.570Z,8.48
2022-11-02T05:50:14.752Z,8.4
2022-11-02T05:51:14.883Z,8.639999
2022-11-02T05:52:15.042Z,8.639999
2022-11-02T05:53:15.155Z,8.72
2022-11-02T05:54:15.301Z,8.24
2022-11-02T05:55:15.463Z,8.32
2022-11-02T05:56:17.398Z,8.32
2022-11-02T05:57:15.756Z,8.48
2022-11-02T05:58:15.897Z,8.88
2022-11-02T05:59:16.005Z,8.639999
2022-11-02T06:00:16.168Z,8.8
2022-11-02T06:01:16.304Z,9.12
2022-11-02T06:02:16.345Z,8.72
2022-11-02T06:03:16.506Z,8.72
2022-11-02T06:04:16.670Z,8.8
2022-11-02T06:05:16.826Z,9.12
2022-11-02T06:06:16.962Z,8.88
2022-11-02T06:07:17.106Z,9.04
2022-11-02T06:08:17.256Z,8.8
2022-11-02T06:09:17.415Z,9.12
2022-11-02T06:10:17.516Z,9.12
2022-11-02T06:11:17.662Z,9.12
2022-11-02T06:12:17.762Z,9.28
2022-11-02T06:13:17.863Z,9.12
2022-11-02T06:14:17.971Z,9.12
2022-11-02T06:15:18.088Z,9.2
2022-11-02T06:16:22.558Z,9.04
2022-11-02T06:17:18.330Z,9.2
2022-11-02T06:18:18.478Z,8.8
2022-11-02T06:19:18.583Z,8.8
2022-11-02T06:20:18.727Z,8.88
2022-11-02T06:21:18.881Z,9.12
2022-11-02T06:22:18.995Z,9.36
2022-11-02T06:23:19.160Z,9.28
2022-11-02T06:24:19.295Z,9.36
2022-11-02T06:25:19.469Z,9.679999
2022-11-02T06:26:19.582Z,9.36
2022-11-02T06:27:19.698Z,9.679999
2022-11-02T06:28:19.860Z,9.36
2022-11-02T06:29:20.018Z,9.28
2022-11-02T06:30:20.155Z,9.52
2022-11-02T06:31:20.292Z,9.599999
2022-11-02T06:32:20.479Z,9.36
2022-11-02T06:33:20.509Z,9.12
2022-11-02T06:34:20.671Z,9.36
2022-11-02T06:35:20.809Z,9.599999
2022-11-02T06:36:20.917Z,9.599999
2022-11-02T06:37:21.063Z,9.84
2022-11-02T06:38:21.230Z,9.679999
2022-11-02T06:39:21.319Z,9.599999
2022-11-02T06:40:22.784Z,9.36
2022-11-02T06:41:21.627Z,9.28
2022-11-02T06:42:21.792Z,9.36
2022-11-02T06:43:22.156Z,9.36
2022-11-02T06:44:22.085Z,9.28
2022-11-02T06:45:22.241Z,9.2
2022-11-02T06:46:22.333Z,8.88
2022-11-02T06:47:22.570Z,9.12
2022-11-02T06:48:22.679Z,8.88
2022-11-02T06:49:22.846Z,9.04
2022-11-02T06:50:22.992Z,8.88
2022-11-02T06:51:23.083Z,9.04
2022-11-02T06:52:23.284Z,9.12
2022-11-02T06:53:23.397Z,9.2
2022-11-02T06:54:23.544Z,9.52
2022-11-02T06:55:23.694Z,9.2
2022-11-02T06:56:23.859Z,9.28
2022-11-02T06:57:24.002Z,9.12
2022-11-02T06:58:24.149Z,9.2
2022-11-02T06:59:24.306Z,9.2
2022-11-02T07:00:24.457Z,9.52
2022-11-02T07:01:24.690Z,9.599999
2022-11-02T07:02:24.829Z,9.52
2022-11-02T07:03:24.911Z,9.92
2022-11-02T07:04:25.019Z,11.04
2022-11-02T07:05:25.126Z,11.599999
2022-11-02T07:06:25.268Z,11.2
2022-11-02T07:07:25.427Z,10.639999
2022-11-02T07:08:25.568Z,10.48
2022-11-02T07:09:25.729Z,11.44
2022-11-02T07:10:25.875Z,12.24
2022-11-02T07:11:26.020Z,12.639999
2022-11-02T07:12:26.185Z,12.4
2022-11-02T07:13:26.355Z,12.719999
2022-11-02T07:14:26.480Z,12.639999
2022-11-02T07:15:26.660Z,13.12
2022-11-02T07:16:26.788Z,13.2
2022-11-02T07:17:31.119Z,13.12
2022-11-02T07:18:27.072Z,12.799999
2022-11-02T07:19:27.235Z,13.12
2022-11-02T07:20:27.337Z,13.28
2022-11-02T07:21:27.496Z,12.88
2022-11-02T07:22:27.599Z,13.52
2022-11-02T07:23:27.711Z,13.52
2022-11-02T07:24:27.845Z,13.28
2022-11-02T07:25:27.997Z,13.28
2022-11-02T07:26:28.185Z,14
2022-11-02T07:27:28.307Z,13.679999
2022-11-02T07:28:28.420Z,13.679999
2022-11-02T07:29:28.551Z,14.719999
2022-11-02T07:30:28.747Z,15.52
2022-11-02T07:31:28.797Z,14.799999
2022-11-02T07:32:28.967Z,15.04
2022-11-02T07:33:29.113Z,15.679999
2022-11-02T07:34:29.256Z,15.679999
2022-11-02T07:35:29.370Z,16.32
2022-11-02T07:36:29.517Z,15.679999
2022-11-02T07:37:29.671Z,15.599999
2022-11-02T07:38:29.825Z,14.719999
2022-11-02T07:39:29.982Z,15.839999
2022-11-02T07:40:30.156Z,16.24
2022-11-02T07:41:30.279Z,15.679999
2022-11-02T07:42:30.439Z,16.4
2022-11-02T07:43:30.586Z,16.4
2022-11-02T07:44:30.738Z,16.24
2022-11-02T07:45:30.890Z,15.839999
2022-11-02T07:46:31.029Z,17.28
2022-11-02T07:47:31.201Z,16.24
2022-11-02T07:48:31.342Z,17.28
2022-11-02T07:49:31.491Z,16.08
2022-11-02T07:50:31.643Z,16.8
2022-11-02T07:51:31.795Z,16.24
2022-11-02T07:52:31.949Z,16.72
2022-11-02T07:53:32.112Z,16.32
2022-11-02T07:54:32.268Z,16.8
2022-11-02T07:55:32.407Z,16.4
2022-11-02T07:56:32.550Z,16.24
2022-11-02T07:57:32.698Z,16.64
2022-11-02T07:58:32.847Z,17.12
2022-11-02T07:59:32.990Z,16.64
2022-11-02T08:00:33.174Z,16.64
2022-11-02T08:01:33.356Z,16
2022-11-02T08:02:33.458Z,15.44
2022-11-02T08:03:33.506Z,16.64
2022-11-02T08:04:33.660Z,17.68
2022-11-02T08:05:33.810Z,18.88
2022-11-02T08:06:33.960Z,17.68
2022-11-02T08:07:34.124Z,17.6
2022-11-02T08:08:34.279Z,16.88
2022-11-02T08:09:34.416Z,17.68
2022-11-02T08:10:36.952Z,18.32
2022-11-02T08:11:34.734Z,17.44
2022-11-02T08:12:34.920Z,17.28
2022-11-02T08:13:35.045Z,17.6
2022-11-02T08:14:35.138Z,16
2022-11-02T08:15:35.269Z,17.04
2022-11-02T08:16:35.432Z,18.24
2022-11-02T08:17:35.556Z,18.08
2022-11-02T08:18:35.706Z,18.08
2022-11-02T08:19:35.828Z,17.28
2022-11-02T08:20:35.994Z,16.64
2022-11-02T08:21:36.109Z,17.12
2022-11-02T08:22:36.258Z,17.04
2022-11-02T08:23:36.347Z,17.92
2022-11-02T08:24:36.446Z,18.08
2022-11-02T08:25:36.605Z,17.28
2022-11-02T08:26:37.763Z,18
2022-11-02T08:27:36.924Z,18.24
2022-11-02T08:28:37.054Z,18.32
2022-11-02T08:29:37.427Z,18.32
2022-11-02T08:30:37.796Z,17.52
2022-11-02T08:31:37.909Z,17.68
2022-11-02T08:32:37.652Z,16.64
2022-11-02T08:33:38.238Z,17.52
2022-11-02T08:34:38.337Z,16.8
2022-11-02T08:35:38.073Z,15.599999
2022-11-02T08:36:38.254Z,16
2022-11-02T08:37:38.384Z,15.2
2022-11-02T08:38:38.523Z,15.679999
2022-11-02T08:39:38.678Z,16
2022-11-02T08:40:38.820Z,16
2022-11-02T08:41:39.015Z,15.12
2022-11-02T08:42:39.154Z,15.12
2022-11-02T08:43:39.297Z,14.639999
2022-11-02T08:44:42.323Z,14.48
2022-11-02T08:46:08.858Z,14.639999
2022-11-02T08:46:39.740Z,14.32
2022-11-02T08:47:39.891Z,15.12
2022-11-02T08:48:40.038Z,14.799999
2022-11-02T08:49:40.217Z,14.639999
2022-11-02T08:50:40.348Z,15.599999
2022-11-02T08:51:40.452Z,16.8
2022-11-02T08:52:40.880Z,16.4
2022-11-02T08:53:40.762Z,16
2022-11-02T08:54:40.901Z,15.839999
2022-11-02T08:55:41.055Z,15.52
2022-11-02T08:56:41.217Z,15.2
2022-11-02T08:57:41.364Z,15.28
2022-11-02T08:58:41.524Z,15.2
2022-11-02T08:59:41.619Z,15.28
2022-11-02T09:00:41.748Z,15.12
2022-11-02T09:01:41.956Z,14.719999
2022-11-02T09:02:42.038Z,14.32
2022-11-02T09:03:42.120Z,14.08
2022-11-02T09:04:42.265Z,14
2022-11-02T09:05:42.423Z,13.599999
2022-11-02T09:06:42.571Z,13.84
2022-11-02T09:07:42.721Z,13.44
2022-11-02T09:08:42.875Z,13.679999
2022-11-02T09:09:43.051Z,13.52
2022-11-02T09:10:43.194Z,13.2
2022-11-02T09:11:43.329Z,13.28
2022-11-02T09:12:43.486Z,13.44
2022-11-02T09:13:43.669Z,13.2
2022-11-02T09:14:43.748Z,13.04
2022-11-02T09:15:43.876Z,12.88
2022-11-02T09:16:44.043Z,13.12
2022-11-02T09:17:44.196Z,13.12
2022-11-02T09:18:44.346Z,12.88
2022-11-02T09:19:44.527Z,13.12
2022-11-02T09:20:44.598Z,13.12
2022-11-02T09:21:44.760Z,13.04
2022-11-02T09:22:44.909Z,12.88
2022-11-02T09:23:45.055Z,12.799999
2022-11-02T09:24:45.264Z,12.88
2022-11-02T09:25:45.376Z,13.12
2022-11-02T09:26:45.509Z,13.04
2022-11-02T09:27:46.063Z,12.799999
2022-11-02T09:28:45.796Z,12.88
2022-11-02T09:29:46.135Z,12.88
2022-11-02T09:30:46.058Z,12.799999
2022-11-02T09:31:46.205Z,12.88
2022-11-02T09:32:46.354Z,12.88
2022-11-02T09:33:46.474Z,12.88
2022-11-02T09:34:46.994Z,13.04
2022-11-02T09:35:47.101Z,13.12
2022-11-02T09:36:47.317Z,13.28
2022-11-02T09:37:50.068Z,13.52
2022-11-02T09:38:47.124Z,13.2
2022-11-02T09:39:47.269Z,12.88
2022-11-02T09:40:47.367Z,13.12
2022-11-02T09:41:47.550Z,13.04
2022-11-02T09:42:47.691Z,13.12
2022-11-02T09:43:47.822Z,13.2
2022-11-02T09:44:47.992Z,13.04
2022-11-02T09:45:48.134Z,12.799999
2022-11-02T09:46:50.703Z,12.88
2022-11-02T09:48:16.295Z,12.88
2022-11-02T09:48:48.604Z,13.04
2022-11-02T09:49:48.758Z,13.04
2022-11-02T09:50:48.903Z,13.44
2022-11-02T09:51:49.047Z,13.28
2022-11-02T09:52:49.201Z,13.12
2022-11-02T09:53:49.355Z,13.12
2022-11-02T09:54:49.519Z,12.88
2022-11-02T09:55:49.657Z,13.04
2022-11-02T09:56:49.808Z,13.28
2022-11-02T09:57:49.962Z,13.44
2022-11-02T09:58:50.107Z,14.639999
2022-11-02T09:59:50.275Z,15.12
2022-11-02T10:00:50.406Z,16.24
2022-11-02T10:01:50.613Z,16.8
2022-11-02T10:02:50.730Z,16.88
2022-11-02T10:03:50.862Z,16.88
2022-11-02T10:04:50.971Z,17.52
2022-11-02T10:05:51.141Z,17.52
2022-11-02T10:06:51.283Z,18.64
2022-11-02T10:07:51.442Z,17.76
2022-11-02T10:08:51.578Z,17.44
2022-11-02T10:09:51.756Z,17.2
2022-11-02T10:10:51.891Z,17.52
2022-11-02T10:11:52.001Z,18
2022-11-02T10:12:52.137Z,17.68
2022-11-02T10:13:54.101Z,16.8
2022-11-02T10:14:52.401Z,17.12
2022-11-02T10:15:52.560Z,18.72
2022-11-02T10:16:52.702Z,19.2
2022-11-02T10:17:52.855Z,18.8
2022-11-02T10:18:53.019Z,17.76
2022-11-02T10:19:53.164Z,17.52
2022-11-02T10:20:53.302Z,17.2
2022-11-02T10:21:53.459Z,17.44
2022-11-02T10:22:53.614Z,17.44
2022-11-02T10:23:53.761Z,17.12
2022-11-02T10:24:53.919Z,16.72
2022-11-02T10:25:54.097Z,16.4
2022-11-02T10:26:54.207Z,16.24
2022-11-02T10:27:54.369Z,15.679999
2022-11-02T10:28:54.463Z,15.2
2022-11-02T10:29:54.571Z,15.2
2022-11-02T10:30:54.791Z,15.04
2022-11-02T10:31:54.921Z,15.28
2022-11-02T10:32:55.122Z,15.44
2022-11-02T10:33:57.024Z,15.28
2022-11-02T10:34:58.937Z,15.28
2022-11-02T10:36:16.623Z,15.28
2022-11-02T10:36:55.663Z,14.88
2022-11-02T10:37:55.785Z,15.04
2022-11-02T10:38:55.931Z,14.88
2022-11-02T10:39:56.092Z,14.799999
2022-11-02T10:40:56.238Z,14.48
2022-11-02T10:41:56.375Z,14.639999
2022-11-02T10:42:56.540Z,14.639999
2022-11-02T10:43:56.693Z,14.88
2022-11-02T10:44:56.800Z,15.04
2022-11-02T10:45:56.933Z,15.44
2022-11-02T10:46:57.060Z,15.599999
2022-11-02T10:47:57.182Z,15.12
2022-11-02T10:48:57.339Z,15.04
2022-11-02T10:49:57.494Z,15.12
2022-11-02T10:50:57.641Z,15.44
2022-11-02T10:51:57.794Z,15.44
2022-11-02T10:53:04.967Z,15.12
2022-11-02T10:53:58.179Z,15.04
2022-11-02T10:54:58.260Z,14.88
2022-11-02T10:55:58.396Z,14.719999
2022-11-02T10:56:58.573Z,14.639999
2022-11-02T10:57:58.660Z,14.719999
2022-11-02T10:58:58.778Z,14.799999
2022-11-02T10:59:58.919Z,14.799999
2022-11-02T11:00:59.074Z,14.639999
2022-11-02T11:01:59.281Z,14.639999
2022-11-02T11:02:59.387Z,14.4
2022-11-02T11:03:59.533Z,14.24
2022-11-02T11:04:59.693Z,14.08
2022-11-02T11:05:59.827Z,14
2022-11-02T11:06:59.967Z,13.92
2022-11-02T11:08:00.134Z,13.84
2022-11-02T11:09:00.280Z,13.679999
2022-11-02T11:10:00.437Z,13.92
2022-11-02T11:11:00.584Z,13.92
2022-11-02T11:12:00.770Z,13.92
2022-11-02T11:13:01.494Z,13.679999
2022-11-02T11:16:02.425Z,14
2022-11-02T11:20:04.394Z,13.44
2022-11-02T11:21:02.201Z,13.2
2022-11-02T11:22:02.352Z,13.44
2022-11-02T11:23:02.788Z,13.52
2022-11-02T11:24:02.733Z,13.44
2022-11-02T11:25:02.753Z,13.44
2022-11-02T11:26:02.863Z,13.28
2022-11-02T11:27:03.009Z,13.12
2022-11-02T11:28:03.439Z,13.2
2022-11-02T11:29:03.314Z,13.28
2022-11-02T11:30:03.468Z,13.12
2022-11-02T11:31:03.591Z,13.599999
2022-11-02T11:32:03.706Z,13.679999
2022-11-02T11:33:03.901Z,13.84
2022-11-02T11:34:03.990Z,14
2022-11-02T11:35:04.125Z,13.84
2022-11-02T11:36:04.282Z,13.84
2022-11-02T11:37:04.422Z,14
2022-11-02T11:38:04.772Z,14
2022-11-02T11:39:04.719Z,14.08
2022-11-02T11:40:04.833Z,14.32
2022-11-02T11:41:04.975Z,14.4
2022-11-02T11:42:05.090Z,13.92
2022-11-02T11:43:05.246Z,13.599999
2022-11-02T11:44:05.367Z,13.599999
2022-11-02T11:45:05.495Z,13.84
2022-11-02T11:46:06.968Z,13.599999
2022-11-02T11:47:05.740Z,13.599999
2022-11-02T11:48:06.238Z,13.52
2022-11-02T11:49:06.006Z,13.28
2022-11-02T11:50:10.449Z,13.44
2022-11-02T11:51:06.257Z,13.44
2022-11-02T11:52:06.401Z,13.44
2022-11-02T11:53:06.777Z,13.2
2022-11-02T11:54:06.659Z,13.28
2022-11-02T11:55:06.800Z,13.28
2022-11-02T11:56:06.957Z,13.2
2022-11-02T11:57:07.084Z,13.52
2022-11-02T11:58:07.417Z,13.599999
2022-11-02T11:59:07.359Z,13.44
2022-11-02T12:00:07.461Z,14
2022-11-02T12:01:10.381Z,14
2022-11-02T12:02:07.746Z,14
2022-11-02T12:03:08.411Z,14
2022-11-02T12:04:07.980Z,13.92
2022-11-02T12:05:08.122Z,13.84
2022-11-02T12:06:08.277Z,13.92
2022-11-02T12:07:08.429Z,13.679999
2022-11-02T12:08:08.783Z,13.12
2022-11-02T12:09:08.738Z,13.04
2022-11-02T12:10:08.886Z,13.12
2022-11-02T12:11:09.031Z,13.04
2022-11-02T12:12:09.116Z,13.2
2022-11-02T12:13:09.190Z,13.599999
2022-11-02T12:14:09.331Z,13.679999
2022-11-02T12:15:09.491Z,13.92
2022-11-02T12:16:09.636Z,14.799999
2022-11-02T12:17:09.794Z,14.4
2022-11-02T12:18:09.958Z,14.24
2022-11-02T12:19:10.101Z,14.799999
2022-11-02T12:20:10.243Z,15.04
2022-11-02T12:21:10.354Z,14.48
2022-11-02T12:22:10.536Z,14.639999
2022-11-02T12:23:10.660Z,14.639999
2022-11-02T12:24:10.808Z,14.4
2022-11-02T12:25:10.959Z,13.92
2022-11-02T12:26:11.067Z,14
2022-11-02T12:27:11.213Z,14.48
2022-11-02T12:28:11.393Z,14.4
2022-11-02T12:29:11.526Z,14.08
2022-11-02T12:30:11.670Z,13.84
2022-11-02T12:31:11.803Z,13.92
2022-11-02T12:32:11.930Z,14.48
2022-11-02T12:33:12.072Z,14.639999
2022-11-02T12:34:12.213Z,14.48
2022-11-02T12:35:29.168Z,14.719999
2022-11-02T12:36:12.488Z,14.48
2022-11-02T12:37:40.216Z,14.24
2022-11-02T12:38:12.784Z,14
2022-11-02T12:39:12.954Z,14.08
2022-11-02T12:40:13.102Z,14
2022-11-02T12:41:13.229Z,13.92
2022-11-02T12:42:13.390Z,14.32
2022-11-02T12:43:13.500Z,14.32
2022-11-02T12:44:13.654Z,14.48
2022-11-02T12:45:13.760Z,15.12
2022-11-02T12:46:13.886Z,15.04
2022-11-02T12:47:14.057Z,14.88
2022-11-02T12:48:14.166Z,14.639999
2022-11-02T12:49:14.305Z,14.4
2022-11-02T12:50:14.521Z,14.32
2022-11-02T12:51:14.607Z,14.32
2022-11-02T12:52:14.753Z,14.32
2022-11-02T12:53:14.912Z,14.48
2022-11-02T12:54:15.065Z,14.32
2022-11-02T12:55:17.001Z,14.24
2022-11-02T12:56:15.310Z,14.32
2022-11-02T12:57:15.472Z,14
2022-11-02T12:58:15.627Z,13.92
2022-11-02T12:59:15.794Z,14
2022-11-02T13:00:15.894Z,13.679999
2022-11-02T13:01:16.078Z,13.599999
2022-11-02T13:02:16.156Z,13.599999
2022-11-02T13:03:16.269Z,13.44
2022-11-02T13:04:16.427Z,13.52
2022-11-02T13:05:16.603Z,13.599999
2022-11-02T13:06:16.750Z,13.599999
2022-11-02T13:07:16.882Z,13.599999
2022-11-02T13:08:17.033Z,13.599999